sensor_id;sensor_type;location;lat;lon;timestamp;P1;durP1;ratioP1;P2;durP2;ratioP2
79640;SDS011;69115;49.904;14.390;2023-11-21T00:00:14;7.25;;;2.35;;
79640;SDS011;69115;49.904;14.390;2023-11-21T00:02:40;5.90;;;2.40;;
79640;SDS011;69115;49.904;14.390;2023-11-21T00:05:07;6.05;;;2.53;;
79640;SDS011;69115;49.904;14.390;2023-11-21T00:07:33;5.03;;;2.20;;
79640;SDS011;69115;49.904;14.390;2023-11-21T00:09:58;8.50;;;2.20;;
79640;SDS011;69115;49.904;14.390;2023-11-21T00:12:24;5.80;;;2.00;;
79640;SDS011;69115;49.904;14.390;2023-11-21T00:14:50;5.38;;;2.10;;
79640;SDS011;69115;49.904;14.390;2023-11-21T00:17:15;4.32;;;2.05;;
79640;SDS011;69115;49.904;14.390;2023-11-21T00:19:40;4.70;;;2.10;;
79640;SDS011;69115;49.904;14.390;2023-11-21T00:22:07;4.93;;;1.85;;
79640;SDS011;69115;49.904;14.390;2023-11-21T00:24:34;5.75;;;2.55;;
79640;SDS011;69115;49.904;14.390;2023-11-21T00:26:59;5.97;;;2.70;;
79640;SDS011;69115;49.904;14.390;2023-11-21T00:29:25;5.68;;;2.42;;
79640;SDS011;69115;49.904;14.390;2023-11-21T00:31:50;4.70;;;2.47;;
79640;SDS011;69115;49.904;14.390;2023-11-21T00:34:16;4.22;;;2.22;;
79640;SDS011;69115;49.904;14.390;2023-11-21T00:36:41;6.75;;;2.38;;
79640;SDS011;69115;49.904;14.390;2023-11-21T00:39:07;3.15;;;1.88;;
79640;SDS011;69115;49.904;14.390;2023-11-21T00:41:32;5.03;;;2.10;;
79640;SDS011;69115;49.904;14.390;2023-11-21T00:43:58;5.70;;;2.10;;
79640;SDS011;69115;49.904;14.390;2023-11-21T00:46:24;4.35;;;2.03;;
79640;SDS011;69115;49.904;14.390;2023-11-21T00:48:52;4.47;;;2.00;;
79640;SDS011;69115;49.904;14.390;2023-11-21T00:51:19;4.75;;;2.28;;
79640;SDS011;69115;49.904;14.390;2023-11-21T00:53:44;4.57;;;2.10;;
79640;SDS011;69115;49.904;14.390;2023-11-21T00:56:09;4.85;;;2.53;;
79640;SDS011;69115;49.904;14.390;2023-11-21T00:58:35;4.22;;;2.08;;
79640;SDS011;69115;49.904;14.390;2023-11-21T01:01:00;4.60;;;2.10;;
79640;SDS011;69115;49.904;14.390;2023-11-21T01:03:26;4.18;;;2.10;;
79640;SDS011;69115;49.904;14.390;2023-11-21T01:05:51;5.68;;;2.00;;
79640;SDS011;69115;49.904;14.390;2023-11-21T01:08:16;4.22;;;2.20;;
79640;SDS011;69115;49.904;14.390;2023-11-21T01:10:42;2.95;;;1.90;;
79640;SDS011;69115;49.904;14.390;2023-11-21T01:13:07;6.75;;;2.10;;
79640;SDS011;69115;49.904;14.390;2023-11-21T01:15:33;4.55;;;1.98;;
79640;SDS011;69115;49.904;14.390;2023-11-21T01:17:59;4.78;;;1.90;;
79640;SDS011;69115;49.904;14.390;2023-11-21T01:20:24;4.47;;;1.73;;
79640;SDS011;69115;49.904;14.390;2023-11-21T01:22:50;5.35;;;2.03;;
79640;SDS011;69115;49.904;14.390;2023-11-21T01:25:15;3.42;;;1.70;;
79640;SDS011;69115;49.904;14.390;2023-11-21T01:27:41;3.40;;;1.80;;
79640;SDS011;69115;49.904;14.390;2023-11-21T01:30:07;5.22;;;1.90;;
79640;SDS011;69115;49.904;14.390;2023-11-21T01:32:35;4.18;;;2.15;;
79640;SDS011;69115;49.904;14.390;2023-11-21T01:35:01;4.38;;;1.80;;
79640;SDS011;69115;49.904;14.390;2023-11-21T01:37:26;5.40;;;1.88;;
79640;SDS011;69115;49.904;14.390;2023-11-21T01:39:53;4.28;;;1.85;;
79640;SDS011;69115;49.904;14.390;2023-11-21T01:42:20;4.32;;;1.92;;
79640;SDS011;69115;49.904;14.390;2023-11-21T01:44:46;4.05;;;2.10;;
79640;SDS011;69115;49.904;14.390;2023-11-21T01:47:11;3.70;;;1.90;;
79640;SDS011;69115;49.904;14.390;2023-11-21T01:49:37;4.85;;;2.00;;
79640;SDS011;69115;49.904;14.390;2023-11-21T01:52:03;5.00;;;1.88;;
79640;SDS011;69115;49.904;14.390;2023-11-21T01:54:29;3.42;;;1.90;;
79640;SDS011;69115;49.904;14.390;2023-11-21T01:56:58;4.72;;;2.20;;
79640;SDS011;69115;49.904;14.390;2023-11-21T01:59:28;5.00;;;2.35;;
79640;SDS011;69115;49.904;14.390;2023-11-21T02:01:57;4.88;;;1.83;;
79640;SDS011;69115;49.904;14.390;2023-11-21T02:04:22;5.05;;;1.88;;
79640;SDS011;69115;49.904;14.390;2023-11-21T02:06:48;5.28;;;2.10;;
79640;SDS011;69115;49.904;14.390;2023-11-21T02:09:15;5.10;;;2.05;;
79640;SDS011;69115;49.904;14.390;2023-11-21T02:11:41;5.10;;;2.25;;
79640;SDS011;69115;49.904;14.390;2023-11-21T02:14:06;4.43;;;1.90;;
79640;SDS011;69115;49.904;14.390;2023-11-21T02:16:34;3.85;;;1.85;;
79640;SDS011;69115;49.904;14.390;2023-11-21T02:19:00;7.57;;;2.10;;
79640;SDS011;69115;49.904;14.390;2023-11-21T02:21:26;3.70;;;2.08;;
79640;SDS011;69115;49.904;14.390;2023-11-21T02:23:52;4.05;;;2.10;;
79640;SDS011;69115;49.904;14.390;2023-11-21T02:26:18;4.50;;;1.95;;
79640;SDS011;69115;49.904;14.390;2023-11-21T02:28:43;5.68;;;2.00;;
79640;SDS011;69115;49.904;14.390;2023-11-21T02:31:08;3.13;;;2.10;;
79640;SDS011;69115;49.904;14.390;2023-11-21T02:33:34;3.88;;;2.10;;
79640;SDS011;69115;49.904;14.390;2023-11-21T02:36:00;6.63;;;2.28;;
79640;SDS011;69115;49.904;14.390;2023-11-21T02:38:25;5.57;;;2.10;;
79640;SDS011;69115;49.904;14.390;2023-11-21T02:40:51;5.03;;;2.38;;
79640;SDS011;69115;49.904;14.390;2023-11-21T02:43:16;4.47;;;2.30;;
79640;SDS011;69115;49.904;14.390;2023-11-21T02:45:42;4.65;;;2.13;;
79640;SDS011;69115;49.904;14.390;2023-11-21T02:48:07;4.70;;;2.30;;
79640;SDS011;69115;49.904;14.390;2023-11-21T02:50:33;7.60;;;2.50;;
79640;SDS011;69115;49.904;14.390;2023-11-21T02:53:00;5.78;;;2.67;;
79640;SDS011;69115;49.904;14.390;2023-11-21T02:55:26;6.28;;;2.40;;
79640;SDS011;69115;49.904;14.390;2023-11-21T02:57:51;5.60;;;2.95;;
79640;SDS011;69115;49.904;14.390;2023-11-21T03:00:17;4.32;;;2.10;;
79640;SDS011;69115;49.904;14.390;2023-11-21T03:02:43;6.90;;;2.70;;
79640;SDS011;69115;49.904;14.390;2023-11-21T03:05:08;6.65;;;2.63;;
79640;SDS011;69115;49.904;14.390;2023-11-21T03:07:34;6.07;;;3.00;;
79640;SDS011;69115;49.904;14.390;2023-11-21T03:10:00;5.97;;;2.80;;
79640;SDS011;69115;49.904;14.390;2023-11-21T03:12:25;8.13;;;2.67;;
79640;SDS011;69115;49.904;14.390;2023-11-21T03:14:51;5.47;;;2.72;;
79640;SDS011;69115;49.904;14.390;2023-11-21T03:17:16;6.00;;;2.40;;
79640;SDS011;69115;49.904;14.390;2023-11-21T03:19:42;6.53;;;2.70;;
79640;SDS011;69115;49.904;14.390;2023-11-21T03:22:07;5.60;;;2.28;;
79640;SDS011;69115;49.904;14.390;2023-11-21T03:24:33;5.78;;;2.13;;
79640;SDS011;69115;49.904;14.390;2023-11-21T03:26:59;5.47;;;2.20;;
79640;SDS011;69115;49.904;14.390;2023-11-21T03:29:25;6.45;;;2.20;;
79640;SDS011;69115;49.904;14.390;2023-11-21T03:31:50;5.25;;;2.20;;
79640;SDS011;69115;49.904;14.390;2023-11-21T03:34:23;4.90;;;2.50;;
79640;SDS011;69115;49.904;14.390;2023-11-21T03:36:50;5.88;;;2.40;;
79640;SDS011;69115;49.904;14.390;2023-11-21T03:39:16;4.97;;;2.70;;
79640;SDS011;69115;49.904;14.390;2023-11-21T03:41:41;5.40;;;2.75;;
79640;SDS011;69115;49.904;14.390;2023-11-21T03:44:07;4.63;;;2.57;;
79640;SDS011;69115;49.904;14.390;2023-11-21T03:46:32;9.68;;;2.70;;
79640;SDS011;69115;49.904;14.390;2023-11-21T03:48:57;8.48;;;2.72;;
79640;SDS011;69115;49.904;14.390;2023-11-21T03:51:23;4.45;;;2.45;;
79640;SDS011;69115;49.904;14.390;2023-11-21T03:53:48;7.68;;;2.53;;
79640;SDS011;69115;49.904;14.390;2023-11-21T03:56:13;6.53;;;2.60;;
79640;SDS011;69115;49.904;14.390;2023-11-21T03:58:39;11.45;;;2.67;;
79640;SDS011;69115;49.904;14.390;2023-11-21T04:01:05;8.40;;;2.60;;
79640;SDS011;69115;49.904;14.390;2023-11-21T04:03:30;6.32;;;2.75;;
79640;SDS011;69115;49.904;14.390;2023-11-21T04:05:56;5.63;;;2.80;;
79640;SDS011;69115;49.904;14.390;2023-11-21T04:08:22;5.85;;;2.55;;
79640;SDS011;69115;49.904;14.390;2023-11-21T04:10:47;6.38;;;2.70;;
79640;SDS011;69115;49.904;14.390;2023-11-21T04:13:13;5.93;;;2.22;;
79640;SDS011;69115;49.904;14.390;2023-11-21T04:15:38;5.18;;;2.30;;
79640;SDS011;69115;49.904;14.390;2023-11-21T04:18:04;4.43;;;1.98;;
79640;SDS011;69115;49.904;14.390;2023-11-21T04:20:30;6.22;;;2.72;;
79640;SDS011;69115;49.904;14.390;2023-11-21T04:22:55;5.93;;;2.20;;
79640;SDS011;69115;49.904;14.390;2023-11-21T04:25:20;5.63;;;2.20;;
79640;SDS011;69115;49.904;14.390;2023-11-21T04:27:48;5.93;;;2.40;;
79640;SDS011;69115;49.904;14.390;2023-11-21T04:30:13;4.25;;;2.15;;
79640;SDS011;69115;49.904;14.390;2023-11-21T04:32:39;4.47;;;1.95;;
79640;SDS011;69115;49.904;14.390;2023-11-21T04:35:04;3.97;;;2.15;;
79640;SDS011;69115;49.904;14.390;2023-11-21T04:37:30;4.63;;;2.00;;
79640;SDS011;69115;49.904;14.390;2023-11-21T04:39:56;3.40;;;1.98;;
79640;SDS011;69115;49.904;14.390;2023-11-21T04:42:21;3.47;;;2.03;;
79640;SDS011;69115;49.904;14.390;2023-11-21T04:44:48;4.03;;;2.00;;
79640;SDS011;69115;49.904;14.390;2023-11-21T04:47:14;4.95;;;2.10;;
79640;SDS011;69115;49.904;14.390;2023-11-21T04:49:41;4.05;;;2.10;;
79640;SDS011;69115;49.904;14.390;2023-11-21T04:52:07;6.20;;;2.08;;
79640;SDS011;69115;49.904;14.390;2023-11-21T04:54:34;4.60;;;2.10;;
79640;SDS011;69115;49.904;14.390;2023-11-21T04:57:00;3.20;;;1.90;;
79640;SDS011;69115;49.904;14.390;2023-11-21T04:59:25;3.80;;;1.90;;
79640;SDS011;69115;49.904;14.390;2023-11-21T05:01:52;5.40;;;1.90;;
79640;SDS011;69115;49.904;14.390;2023-11-21T05:04:18;3.97;;;2.13;;
79640;SDS011;69115;49.904;14.390;2023-11-21T05:06:44;7.55;;;2.10;;
79640;SDS011;69115;49.904;14.390;2023-11-21T05:09:09;4.45;;;2.50;;
79640;SDS011;69115;49.904;14.390;2023-11-21T05:11:37;3.53;;;2.00;;
79640;SDS011;69115;49.904;14.390;2023-11-21T05:14:02;6.70;;;2.10;;
79640;SDS011;69115;49.904;14.390;2023-11-21T05:16:29;3.08;;;1.90;;
79640;SDS011;69115;49.904;14.390;2023-11-21T05:18:54;4.10;;;2.00;;
79640;SDS011;69115;49.904;14.390;2023-11-21T05:21:25;3.55;;;2.00;;
79640;SDS011;69115;49.904;14.390;2023-11-21T05:23:51;10.40;;;3.47;;
79640;SDS011;69115;49.904;14.390;2023-11-21T05:26:16;7.53;;;2.97;;
79640;SDS011;69115;49.904;14.390;2023-11-21T05:28:41;9.65;;;3.22;;
79640;SDS011;69115;49.904;14.390;2023-11-21T05:31:07;6.83;;;2.60;;
79640;SDS011;69115;49.904;14.390;2023-11-21T05:33:32;8.13;;;2.50;;
79640;SDS011;69115;49.904;14.390;2023-11-21T05:35:58;7.13;;;3.03;;
79640;SDS011;69115;49.904;14.390;2023-11-21T05:38:25;9.50;;;2.67;;
79640;SDS011;69115;49.904;14.390;2023-11-21T05:40:51;7.90;;;2.75;;
79640;SDS011;69115;49.904;14.390;2023-11-21T05:43:16;11.82;;;3.40;;
79640;SDS011;69115;49.904;14.390;2023-11-21T05:45:42;6.63;;;2.42;;
79640;SDS011;69115;49.904;14.390;2023-11-21T05:48:08;9.55;;;3.13;;
79640;SDS011;69115;49.904;14.390;2023-11-21T05:50:33;10.27;;;2.88;;
79640;SDS011;69115;49.904;14.390;2023-11-21T05:52:59;6.20;;;2.63;;
79640;SDS011;69115;49.904;14.390;2023-11-21T05:55:25;7.07;;;2.85;;
79640;SDS011;69115;49.904;14.390;2023-11-21T05:57:51;6.13;;;2.30;;
79640;SDS011;69115;49.904;14.390;2023-11-21T06:00:16;5.72;;;2.10;;
79640;SDS011;69115;49.904;14.390;2023-11-21T06:02:49;4.55;;;2.30;;
79640;SDS011;69115;49.904;14.390;2023-11-21T06:05:22;4.32;;;2.50;;
79640;SDS011;69115;49.904;14.390;2023-11-21T06:07:49;6.10;;;2.50;;
79640;SDS011;69115;49.904;14.390;2023-11-21T06:10:15;6.15;;;2.30;;
79640;SDS011;69115;49.904;14.390;2023-11-21T06:12:42;5.85;;;2.20;;
79640;SDS011;69115;49.904;14.390;2023-11-21T06:15:08;9.95;;;2.65;;
79640;SDS011;69115;49.904;14.390;2023-11-21T06:17:35;6.90;;;2.13;;
79640;SDS011;69115;49.904;14.390;2023-11-21T06:20:05;4.63;;;2.00;;
79640;SDS011;69115;49.904;14.390;2023-11-21T06:22:40;7.68;;;2.53;;
79640;SDS011;69115;49.904;14.390;2023-11-21T06:25:07;6.63;;;2.33;;
79640;SDS011;69115;49.904;14.390;2023-11-21T06:27:34;5.50;;;2.33;;
79640;SDS011;69115;49.904;14.390;2023-11-21T06:30:03;6.13;;;2.22;;
79640;SDS011;69115;49.904;14.390;2023-11-21T06:32:30;13.93;;;2.70;;
79640;SDS011;69115;49.904;14.390;2023-11-21T06:34:55;6.07;;;2.50;;
79640;SDS011;69115;49.904;14.390;2023-11-21T06:37:24;4.88;;;2.55;;
79640;SDS011;69115;49.904;14.390;2023-11-21T06:39:50;6.97;;;2.92;;
79640;SDS011;69115;49.904;14.390;2023-11-21T06:42:17;7.35;;;3.33;;
79640;SDS011;69115;49.904;14.390;2023-11-21T06:44:42;7.03;;;3.10;;
79640;SDS011;69115;49.904;14.390;2023-11-21T06:47:09;6.25;;;3.08;;
79640;SDS011;69115;49.904;14.390;2023-11-21T06:49:34;10.93;;;4.00;;
79640;SDS011;69115;49.904;14.390;2023-11-21T06:52:03;10.15;;;3.45;;
79640;SDS011;69115;49.904;14.390;2023-11-21T06:54:28;10.85;;;3.75;;
79640;SDS011;69115;49.904;14.390;2023-11-21T06:56:54;8.43;;;3.72;;
79640;SDS011;69115;49.904;14.390;2023-11-21T06:59:21;8.50;;;2.90;;
79640;SDS011;69115;49.904;14.390;2023-11-21T07:01:47;8.38;;;3.60;;
79640;SDS011;69115;49.904;14.390;2023-11-21T07:04:12;8.50;;;3.67;;
79640;SDS011;69115;49.904;14.390;2023-11-21T07:06:38;10.55;;;3.28;;
79640;SDS011;69115;49.904;14.390;2023-11-21T07:09:03;13.32;;;4.63;;
79640;SDS011;69115;49.904;14.390;2023-11-21T07:11:29;16.33;;;9.13;;
79640;SDS011;69115;49.904;14.390;2023-11-21T07:13:56;14.43;;;5.97;;
79640;SDS011;69115;49.904;14.390;2023-11-21T07:16:21;10.52;;;5.57;;
79640;SDS011;69115;49.904;14.390;2023-11-21T07:18:47;12.10;;;5.78;;
79640;SDS011;69115;49.904;14.390;2023-11-21T07:21:14;7.13;;;4.05;;
79640;SDS011;69115;49.904;14.390;2023-11-21T07:23:40;6.50;;;3.78;;
79640;SDS011;69115;49.904;14.390;2023-11-21T07:26:06;7.40;;;3.70;;
79640;SDS011;69115;49.904;14.390;2023-11-21T07:28:34;5.90;;;2.78;;
79640;SDS011;69115;49.904;14.390;2023-11-21T07:31:00;8.50;;;2.92;;
79640;SDS011;69115;49.904;14.390;2023-11-21T07:33:26;6.65;;;3.20;;
79640;SDS011;69115;49.904;14.390;2023-11-21T07:35:51;7.07;;;3.00;;
79640;SDS011;69115;49.904;14.390;2023-11-21T07:38:17;6.90;;;3.08;;
79640;SDS011;69115;49.904;14.390;2023-11-21T07:40:42;4.72;;;2.80;;
79640;SDS011;69115;49.904;14.390;2023-11-21T07:43:08;5.28;;;2.80;;
79640;SDS011;69115;49.904;14.390;2023-11-21T07:45:34;5.75;;;2.83;;
79640;SDS011;69115;49.904;14.390;2023-11-21T07:47:59;8.35;;;3.55;;
79640;SDS011;69115;49.904;14.390;2023-11-21T07:50:26;4.40;;;2.78;;
79640;SDS011;69115;49.904;14.390;2023-11-21T07:52:52;5.15;;;2.78;;
79640;SDS011;69115;49.904;14.390;2023-11-21T07:55:19;5.32;;;2.90;;
79640;SDS011;69115;49.904;14.390;2023-11-21T07:57:44;4.80;;;2.80;;
79640;SDS011;69115;49.904;14.390;2023-11-21T08:00:10;5.70;;;2.70;;
79640;SDS011;69115;49.904;14.390;2023-11-21T08:02:37;5.55;;;2.63;;
79640;SDS011;69115;49.904;14.390;2023-11-21T08:05:04;5.78;;;2.78;;
79640;SDS011;69115;49.904;14.390;2023-11-21T08:07:30;8.07;;;3.13;;
79640;SDS011;69115;49.904;14.390;2023-11-21T08:09:56;7.47;;;3.72;;
79640;SDS011;69115;49.904;14.390;2023-11-21T08:12:21;5.30;;;3.22;;
79640;SDS011;69115;49.904;14.390;2023-11-21T08:14:47;8.30;;;4.13;;
79640;SDS011;69115;49.904;14.390;2023-11-21T08:17:12;14.63;;;5.35;;
79640;SDS011;69115;49.904;14.390;2023-11-21T08:19:39;15.48;;;5.93;;
79640;SDS011;69115;49.904;14.390;2023-11-21T08:22:04;13.13;;;5.20;;
79640;SDS011;69115;49.904;14.390;2023-11-21T08:24:30;13.63;;;5.15;;
79640;SDS011;69115;49.904;14.390;2023-11-21T08:26:56;5.47;;;3.42;;
79640;SDS011;69115;49.904;14.390;2023-11-21T08:29:21;6.40;;;3.80;;
79640;SDS011;69115;49.904;14.390;2023-11-21T08:31:48;11.32;;;4.15;;
79640;SDS011;69115;49.904;14.390;2023-11-21T08:34:13;11.73;;;4.85;;
79640;SDS011;69115;49.904;14.390;2023-11-21T08:36:43;6.38;;;2.90;;
79640;SDS011;69115;49.904;14.390;2023-11-21T08:39:09;6.82;;;2.83;;
79640;SDS011;69115;49.904;14.390;2023-11-21T08:41:38;7.95;;;3.33;;
79640;SDS011;69115;49.904;14.390;2023-11-21T08:44:03;6.18;;;3.13;;
79640;SDS011;69115;49.904;14.390;2023-11-21T08:46:32;22.02;;;4.25;;
79640;SDS011;69115;49.904;14.390;2023-11-21T08:48:58;6.43;;;3.05;;
79640;SDS011;69115;49.904;14.390;2023-11-21T08:51:26;6.00;;;3.05;;
79640;SDS011;69115;49.904;14.390;2023-11-21T08:53:51;5.90;;;2.80;;
79640;SDS011;69115;49.904;14.390;2023-11-21T08:56:17;4.82;;;2.53;;
79640;SDS011;69115;49.904;14.390;2023-11-21T08:58:43;5.75;;;2.75;;
79640;SDS011;69115;49.904;14.390;2023-11-21T09:01:09;7.38;;;2.90;;
79640;SDS011;69115;49.904;14.390;2023-11-21T09:03:34;17.42;;;3.85;;
79640;SDS011;69115;49.904;14.390;2023-11-21T09:06:00;5.47;;;2.83;;
79640;SDS011;69115;49.904;14.390;2023-11-21T09:08:25;6.57;;;2.65;;
79640;SDS011;69115;49.904;14.390;2023-11-21T09:10:53;6.30;;;3.20;;
79640;SDS011;69115;49.904;14.390;2023-11-21T09:13:18;7.72;;;3.22;;
79640;SDS011;69115;49.904;14.390;2023-11-21T09:15:44;6.05;;;2.92;;
79640;SDS011;69115;49.904;14.390;2023-11-21T09:18:12;7.38;;;3.20;;
79640;SDS011;69115;49.904;14.390;2023-11-21T09:20:41;4.57;;;2.50;;
79640;SDS011;69115;49.904;14.390;2023-11-21T09:23:10;6.95;;;3.00;;
79640;SDS011;69115;49.904;14.390;2023-11-21T09:25:36;5.60;;;3.17;;
79640;SDS011;69115;49.904;14.390;2023-11-21T09:28:03;5.82;;;2.80;;
79640;SDS011;69115;49.904;14.390;2023-11-21T09:30:32;6.15;;;3.47;;
79640;SDS011;69115;49.904;14.390;2023-11-21T09:32:58;5.95;;;3.50;;
79640;SDS011;69115;49.904;14.390;2023-11-21T09:35:23;7.00;;;3.38;;
79640;SDS011;69115;49.904;14.390;2023-11-21T09:37:49;6.53;;;3.33;;
79640;SDS011;69115;49.904;14.390;2023-11-21T09:40:15;5.30;;;2.78;;
79640;SDS011;69115;49.904;14.390;2023-11-21T09:43:04;5.38;;;2.88;;
79640;SDS011;69115;49.904;14.390;2023-11-21T09:45:34;7.28;;;3.38;;
79640;SDS011;69115;49.904;14.390;2023-11-21T09:48:00;8.38;;;3.35;;
79640;SDS011;69115;49.904;14.390;2023-11-21T09:50:26;11.23;;;4.15;;
79640;SDS011;69115;49.904;14.390;2023-11-21T09:55:31;9.52;;;4.10;;
79640;SDS011;69115;49.904;14.390;2023-11-21T09:58:01;9.02;;;4.22;;
79640;SDS011;69115;49.904;14.390;2023-11-21T10:00:27;7.07;;;3.20;;
79640;SDS011;69115;49.904;14.390;2023-11-21T10:02:54;7.72;;;3.33;;
79640;SDS011;69115;49.904;14.390;2023-11-21T10:05:21;5.65;;;3.05;;
79640;SDS011;69115;49.904;14.390;2023-11-21T10:07:48;6.68;;;3.17;;
79640;SDS011;69115;49.904;14.390;2023-11-21T10:10:14;6.63;;;3.75;;
79640;SDS011;69115;49.904;14.390;2023-11-21T10:12:48;11.63;;;3.88;;
79640;SDS011;69115;49.904;14.390;2023-11-21T10:15:18;6.15;;;3.17;;
79640;SDS011;69115;49.904;14.390;2023-11-21T10:17:44;6.00;;;3.05;;
79640;SDS011;69115;49.904;14.390;2023-11-21T10:20:13;11.63;;;4.75;;
79640;SDS011;69115;49.904;14.390;2023-11-21T10:22:39;9.52;;;4.07;;
79640;SDS011;69115;49.904;14.390;2023-11-21T10:25:06;7.05;;;3.20;;
79640;SDS011;69115;49.904;14.390;2023-11-21T10:27:33;6.53;;;3.55;;
79640;SDS011;69115;49.904;14.390;2023-11-21T10:30:00;6.35;;;3.53;;
79640;SDS011;69115;49.904;14.390;2023-11-21T10:32:28;7.25;;;3.42;;
79640;SDS011;69115;49.904;14.390;2023-11-21T10:34:57;10.13;;;3.53;;
79640;SDS011;69115;49.904;14.390;2023-11-21T10:37:23;6.35;;;3.08;;
79640;SDS011;69115;49.904;14.390;2023-11-21T10:39:48;7.75;;;3.10;;
79640;SDS011;69115;49.904;14.390;2023-11-21T10:42:14;5.22;;;3.20;;
79640;SDS011;69115;49.904;14.390;2023-11-21T10:44:40;6.68;;;3.50;;
79640;SDS011;69115;49.904;14.390;2023-11-21T10:47:08;6.18;;;3.63;;
79640;SDS011;69115;49.904;14.390;2023-11-21T10:49:36;7.75;;;3.67;;
79640;SDS011;69115;49.904;14.390;2023-11-21T10:52:02;7.85;;;3.40;;
79640;SDS011;69115;49.904;14.390;2023-11-21T10:54:29;5.13;;;3.20;;
79640;SDS011;69115;49.904;14.390;2023-11-21T10:56:58;6.20;;;3.38;;
79640;SDS011;69115;49.904;14.390;2023-11-21T10:59:26;6.97;;;3.33;;
79640;SDS011;69115;49.904;14.390;2023-11-21T11:01:54;7.10;;;3.42;;
79640;SDS011;69115;49.904;14.390;2023-11-21T11:04:23;6.93;;;3.58;;
79640;SDS011;69115;49.904;14.390;2023-11-21T11:07:24;5.45;;;3.30;;
79640;SDS011;69115;49.904;14.390;2023-11-21T11:09:42;5.47;;;2.90;;
79640;SDS011;69115;49.904;14.390;2023-11-21T11:12:09;6.75;;;2.80;;
79640;SDS011;69115;49.904;14.390;2023-11-21T11:14:35;6.50;;;3.00;;
79640;SDS011;69115;49.904;14.390;2023-11-21T11:17:01;4.78;;;3.05;;
79640;SDS011;69115;49.904;14.390;2023-11-21T11:19:27;5.78;;;3.20;;
79640;SDS011;69115;49.904;14.390;2023-11-21T11:21:57;7.30;;;3.10;;
79640;SDS011;69115;49.904;14.390;2023-11-21T11:33:11;6.28;;;3.13;;
79640;SDS011;69115;49.904;14.390;2023-11-21T11:35:53;7.22;;;3.28;;
79640;SDS011;69115;49.904;14.390;2023-11-21T11:41:05;5.80;;;2.70;;
79640;SDS011;69115;49.904;14.390;2023-11-21T11:43:32;6.35;;;2.83;;
79640;SDS011;69115;49.904;14.390;2023-11-21T11:45:58;4.80;;;2.92;;
79640;SDS011;69115;49.904;14.390;2023-11-21T11:48:25;4.93;;;2.53;;
79640;SDS011;69115;49.904;14.390;2023-11-21T11:51:06;6.45;;;3.25;;
79640;SDS011;69115;49.904;14.390;2023-11-21T11:53:35;7.05;;;3.03;;
79640;SDS011;69115;49.904;14.390;2023-11-21T11:58:59;6.07;;;3.17;;
79640;SDS011;69115;49.904;14.390;2023-11-21T12:01:27;5.85;;;3.35;;
79640;SDS011;69115;49.904;14.390;2023-11-21T12:06:51;6.18;;;3.30;;
79640;SDS011;69115;49.904;14.390;2023-11-21T12:09:24;7.60;;;3.42;;
79640;SDS011;69115;49.904;14.390;2023-11-21T12:11:51;6.07;;;3.00;;
79640;SDS011;69115;49.904;14.390;2023-11-21T12:14:17;6.13;;;3.25;;
79640;SDS011;69115;49.904;14.390;2023-11-21T12:16:43;6.13;;;3.17;;
79640;SDS011;69115;49.904;14.390;2023-11-21T12:19:12;5.40;;;3.22;;
79640;SDS011;69115;49.904;14.390;2023-11-21T12:21:38;5.32;;;3.38;;
79640;SDS011;69115;49.904;14.390;2023-11-21T12:24:06;6.72;;;3.00;;
79640;SDS011;69115;49.904;14.390;2023-11-21T12:26:34;6.97;;;3.60;;
79640;SDS011;69115;49.904;14.390;2023-11-21T12:29:01;5.53;;;3.03;;
79640;SDS011;69115;49.904;14.390;2023-11-21T12:31:29;6.05;;;2.90;;
79640;SDS011;69115;49.904;14.390;2023-11-21T12:33:54;5.65;;;2.75;;
79640;SDS011;69115;49.904;14.390;2023-11-21T12:36:21;6.32;;;2.80;;
79640;SDS011;69115;49.904;14.390;2023-11-21T12:38:47;5.63;;;2.65;;
79640;SDS011;69115;49.904;14.390;2023-11-21T12:41:12;7.00;;;2.97;;
79640;SDS011;69115;49.904;14.390;2023-11-21T12:43:38;6.00;;;2.83;;
79640;SDS011;69115;49.904;14.390;2023-11-21T12:46:08;5.97;;;2.90;;
79640;SDS011;69115;49.904;14.390;2023-11-21T12:48:38;8.57;;;3.88;;
79640;SDS011;69115;49.904;14.390;2023-11-21T12:51:08;9.85;;;3.97;;
79640;SDS011;69115;49.904;14.390;2023-11-21T12:53:34;6.40;;;3.35;;
79640;SDS011;69115;49.904;14.390;2023-11-21T12:56:02;5.10;;;3.33;;
79640;SDS011;69115;49.904;14.390;2023-11-21T12:58:28;7.68;;;3.90;;
79640;SDS011;69115;49.904;14.390;2023-11-21T13:00:54;7.47;;;4.43;;
79640;SDS011;69115;49.904;14.390;2023-11-21T13:03:22;9.95;;;4.30;;
79640;SDS011;69115;49.904;14.390;2023-11-21T13:05:51;9.02;;;4.28;;
79640;SDS011;69115;49.904;14.390;2023-11-21T13:08:19;9.07;;;4.43;;
79640;SDS011;69115;49.904;14.390;2023-11-21T13:10:48;7.38;;;4.00;;
79640;SDS011;69115;49.904;14.390;2023-11-21T13:13:14;7.60;;;3.65;;
79640;SDS011;69115;49.904;14.390;2023-11-21T13:15:49;6.88;;;3.33;;
79640;SDS011;69115;49.904;14.390;2023-11-21T13:18:15;8.27;;;4.00;;
79640;SDS011;69115;49.904;14.390;2023-11-21T13:20:41;7.38;;;3.50;;
79640;SDS011;69115;49.904;14.390;2023-11-21T13:23:11;7.43;;;3.70;;
79640;SDS011;69115;49.904;14.390;2023-11-21T13:25:40;12.25;;;4.32;;
79640;SDS011;69115;49.904;14.390;2023-11-21T13:28:06;11.40;;;3.50;;
79640;SDS011;69115;49.904;14.390;2023-11-21T13:30:32;5.53;;;3.05;;
79640;SDS011;69115;49.904;14.390;2023-11-21T13:33:01;7.97;;;3.85;;
79640;SDS011;69115;49.904;14.390;2023-11-21T13:35:30;10.05;;;3.72;;
79640;SDS011;69115;49.904;14.390;2023-11-21T13:38:06;7.65;;;4.00;;
79640;SDS011;69115;49.904;14.390;2023-11-21T13:40:33;8.05;;;4.00;;
79640;SDS011;69115;49.904;14.390;2023-11-21T13:43:02;9.30;;;4.15;;
79640;SDS011;69115;49.904;14.390;2023-11-21T13:45:30;8.18;;;3.47;;
79640;SDS011;69115;49.904;14.390;2023-11-21T13:47:56;9.32;;;4.00;;
79640;SDS011;69115;49.904;14.390;2023-11-21T13:50:27;8.65;;;3.88;;
79640;SDS011;69115;49.904;14.390;2023-11-21T13:53:02;12.35;;;4.57;;
79640;SDS011;69115;49.904;14.390;2023-11-21T13:55:35;10.10;;;4.18;;
79640;SDS011;69115;49.904;14.390;2023-11-21T13:58:01;11.73;;;4.57;;
79640;SDS011;69115;49.904;14.390;2023-11-21T14:00:27;11.75;;;4.30;;
79640;SDS011;69115;49.904;14.390;2023-11-21T14:03:12;9.85;;;3.95;;
79640;SDS011;69115;49.904;14.390;2023-11-21T14:05:47;8.38;;;4.22;;
79640;SDS011;69115;49.904;14.390;2023-11-21T14:08:19;11.57;;;4.70;;
79640;SDS011;69115;49.904;14.390;2023-11-21T14:10:46;13.98;;;5.32;;
79640;SDS011;69115;49.904;14.390;2023-11-21T14:13:22;12.25;;;5.00;;
79640;SDS011;69115;49.904;14.390;2023-11-21T14:15:53;9.50;;;4.88;;
79640;SDS011;69115;49.904;14.390;2023-11-21T14:18:27;16.38;;;6.18;;
79640;SDS011;69115;49.904;14.390;2023-11-21T14:21:03;10.57;;;5.30;;
79640;SDS011;69115;49.904;14.390;2023-11-21T14:23:30;9.98;;;5.18;;
79640;SDS011;69115;49.904;14.390;2023-11-21T14:25:56;16.90;;;6.25;;
79640;SDS011;69115;49.904;14.390;2023-11-21T14:28:22;10.52;;;5.30;;
79640;SDS011;69115;49.904;14.390;2023-11-21T14:30:48;12.82;;;5.05;;
79640;SDS011;69115;49.904;14.390;2023-11-21T14:33:16;14.75;;;6.57;;
79640;SDS011;69115;49.904;14.390;2023-11-21T14:35:42;11.63;;;5.18;;
79640;SDS011;69115;49.904;14.390;2023-11-21T14:38:11;12.38;;;4.40;;
79640;SDS011;69115;49.904;14.390;2023-11-21T14:40:39;12.48;;;4.95;;
79640;SDS011;69115;49.904;14.390;2023-11-21T14:43:05;10.88;;;4.82;;
79640;SDS011;69115;49.904;14.390;2023-11-21T14:45:31;14.50;;;5.07;;
79640;SDS011;69115;49.904;14.390;2023-11-21T14:47:57;12.57;;;5.22;;
79640;SDS011;69115;49.904;14.390;2023-11-21T14:50:51;15.23;;;5.43;;